createdAt,value
2022-08-18T00:01:24.575Z,100007.31
2022-08-18T00:03:59.246Z,100010.03
2022-08-18T00:06:31.928Z,100027.03
2022-08-18T00:09:03.347Z,100016.16
2022-08-18T00:11:41.532Z,100016.72
2022-08-18T00:14:22.159Z,100014.31
2022-08-18T00:16:53.939Z,100024.56
2022-08-18T00:19:43.663Z,100018.19
2022-08-18T00:22:15.909Z,100026.81
2022-08-18T00:24:48.448Z,100001.41
2022-08-18T00:27:23.345Z,100026.13
2022-08-18T00:29:55.677Z,100018.03
2022-08-18T00:32:51.476Z,100035.59
2022-08-18T00:35:29.011Z,100041.50
2022-08-18T00:38:01.671Z,100044.09
2022-08-18T00:40:49.509Z,100050.41
2022-08-18T00:43:29.557Z,100056.69
2022-08-18T00:45:57.721Z,100047.28
2022-08-18T00:48:26.991Z,100058.69
2022-08-18T00:51:03.571Z,100056.84
2022-08-18T00:53:45.763Z,100066.88
2022-08-18T00:56:25.041Z,100068.16
2022-08-18T00:58:59.930Z,100066.06
2022-08-18T01:01:36.044Z,100076.94
2022-08-18T01:04:32.314Z,100083.25
2022-08-18T01:07:07.428Z,100069.16
2022-08-18T01:09:35.650Z,100067.44
2022-08-18T01:12:12.549Z,100082.59
2022-08-18T01:14:51.850Z,100072.00
2022-08-18T01:17:38.503Z,100086.56
2022-08-18T01:20:25.638Z,100078.88
2022-08-18T01:23:13.101Z,100072.56
2022-08-18T01:26:00.501Z,100075.59
2022-08-18T01:28:40.545Z,100073.88
2022-08-18T01:31:10.308Z,100072.16
2022-08-18T01:33:44.204Z,100072.88
2022-08-18T01:36:21.180Z,100071.31
2022-08-18T01:38:52.528Z,100071.59
2022-08-18T01:41:29.838Z,100070.28
2022-08-18T01:44:03.369Z,100069.09
2022-08-18T01:46:35.085Z,100061.34
2022-08-18T01:49:07.743Z,100073.78
2022-08-18T01:51:41.305Z,100061.34
2022-08-18T01:54:12.979Z,100061.91
2022-08-18T01:56:43.107Z,100056.06
2022-08-18T01:59:14.720Z,100061.50
2022-08-18T02:01:48.915Z,100056.84
2022-08-18T02:04:36.765Z,100051.25
2022-08-18T02:07:09.362Z,100048.25
2022-08-18T02:09:40.386Z,100042.13
2022-08-18T02:12:10.502Z,100045.97
2022-08-18T02:14:40.131Z,100038.38
2022-08-18T02:17:11.304Z,100036.13
2022-08-18T02:19:45.764Z,100040.25
2022-08-18T02:22:18.812Z,100028.66
2022-08-18T02:24:47.849Z,100021.69
2022-08-18T02:27:16.851Z,100026.25
2022-08-18T02:29:44.883Z,100023.81
2022-08-18T02:32:13.164Z,100029.09
2022-08-18T02:34:42.794Z,100025.69
2022-08-18T02:37:15.599Z,100015.84
2022-08-18T02:39:44.625Z,100027.97
2022-08-18T02:42:16.488Z,100026.09
2022-08-18T02:44:44.659Z,100017.09
2022-08-18T02:47:12.852Z,100004.38
2022-08-18T02:49:41.350Z,100000.09
2022-08-18T02:52:09.740Z,100001.09
2022-08-18T02:54:39.535Z,100005.81
2022-08-18T02:57:13.137Z,100007.53
2022-08-18T02:59:41.834Z,100001.53
2022-08-18T03:02:16.366Z,100014.41
2022-08-18T03:04:46.123Z,100010.16
2022-08-18T03:07:15.174Z,100000.72
2022-08-18T03:09:43.252Z,99994.59
2022-08-18T03:12:11.354Z,99994.75
2022-08-18T03:14:40.260Z,99986.03
2022-08-18T03:17:09.789Z,99990.78
2022-08-18T03:19:38.395Z,99989.47
2022-08-18T03:22:28.692Z,99992.75
2022-08-18T03:24:59.519Z,99978.53
2022-08-18T03:27:28.942Z,99989.66
2022-08-18T03:29:58.782Z,99986.38
2022-08-18T03:32:26.684Z,99977.81
2022-08-18T03:34:55.183Z,99995.84
2022-08-18T03:37:23.472Z,99975.13
2022-08-18T03:39:53.012Z,99975.09
2022-08-18T03:42:21.567Z,99975.81
2022-08-18T03:44:49.800Z,99972.69
2022-08-18T03:47:19.338Z,99982.41
2022-08-18T03:49:49.182Z,99984.09
2022-08-18T03:52:21.658Z,99977.97
2022-08-18T03:54:50.692Z,99969.13
2022-08-18T03:57:18.899Z,99952.84
2022-08-18T03:59:46.828Z,99976.41
2022-08-18T04:02:18.832Z,99975.25
2022-08-18T04:04:56.301Z,99958.28
2022-08-18T04:07:25.032Z,99968.84
2022-08-18T04:09:53.013Z,99972.28
2022-08-18T04:12:21.090Z,99966.97
2022-08-18T04:14:50.274Z,99967.97
2022-08-18T04:17:24.589Z,99972.41
2022-08-18T04:19:54.726Z,99978.81
2022-08-18T04:22:25.168Z,99980.97
2022-08-18T04:24:55.912Z,99981.84
2022-08-18T04:27:27.387Z,99978.13
2022-08-18T04:29:56.920Z,99978.56
2022-08-18T04:32:29.932Z,99969.84
2022-08-18T04:34:58.592Z,99972.56
2022-08-18T04:37:32.574Z,99989.00
2022-08-18T04:40:01.808Z,99990.53
2022-08-18T04:42:29.703Z,99996.13
2022-08-18T04:44:58.901Z,99997.84
2022-08-18T04:47:27.496Z,99994.41
2022-08-18T04:49:56.647Z,99999.69
2022-08-18T04:52:56.854Z,99996.56
2022-08-18T04:55:25.885Z,99999.44
2022-08-18T04:57:54.207Z,100004.13
2022-08-18T05:00:22.407Z,100015.56
2022-08-18T05:02:50.437Z,100025.28
2022-08-18T05:05:18.452Z,100015.56
2022-08-18T05:07:47.989Z,100022.69
2022-08-18T05:10:17.737Z,100041.25
2022-08-18T05:12:48.907Z,100030.84
2022-08-18T05:15:19.162Z,100047.84
2022-08-18T05:17:50.649Z,100059.13
2022-08-18T05:20:21.282Z,100049.13
2022-08-18T05:22:49.704Z,100053.53
2022-08-18T05:25:18.838Z,100028.13
2022-08-18T05:27:47.096Z,100047.13
2022-08-18T05:30:16.677Z,100020.13
2022-08-18T05:32:49.899Z,100012.69
2022-08-18T05:35:30.772Z,100033.09
2022-08-18T05:38:19.702Z,100025.41
2022-08-18T05:41:23.064Z,100024.69
2022-08-18T05:43:53.057Z,100020.97
2022-08-18T05:46:54.713Z,100013.00
2022-08-18T05:49:25.682Z,100005.41
2022-08-18T05:52:04.775Z,100001.53
2022-08-18T05:55:05.569Z,100003.09
2022-08-18T05:57:51.640Z,99988.25
2022-08-18T06:00:25.022Z,99995.94
2022-08-18T06:03:15.354Z,100006.94
2022-08-18T06:06:01.665Z,100003.06
2022-08-18T06:09:11.030Z,99983.78
2022-08-18T06:11:39.099Z,99998.22
2022-08-18T06:14:08.796Z,100005.66
2022-08-18T06:16:44.499Z,100009.91
2022-08-18T06:19:53.663Z,100008.03
2022-08-18T06:22:52.081Z,100011.34
2022-08-18T06:25:41.488Z,100016.47
2022-08-18T06:28:16.032Z,100016.88
2022-08-18T06:31:14.363Z,100031.56
2022-08-18T06:34:29.301Z,100028.69
2022-08-18T06:37:12.178Z,100030.56
2022-08-18T06:39:51.607Z,100036.13
2022-08-18T06:42:26.328Z,100009.16
2022-08-18T06:45:18.311Z,100025.41
2022-08-18T06:48:00.120Z,100039.97
2022-08-18T06:50:46.408Z,100050.28
2022-08-18T06:53:27.501Z,100053.13
2022-08-18T06:55:58.323Z,100051.97
2022-08-18T06:58:31.383Z,100051.22
2022-08-18T07:01:08.370Z,100054.31
2022-08-18T07:03:39.057Z,100058.47
2022-08-18T07:06:08.754Z,100068.34
2022-08-18T07:08:41.590Z,100061.59
2022-08-18T07:11:30.292Z,100040.22
2022-08-18T07:14:24.624Z,100041.53
2022-08-18T07:17:12.264Z,100029.31
2022-08-18T07:19:41.410Z,100044.31
2022-08-18T07:22:18.336Z,100042.38
2022-08-18T07:24:54.535Z,100059.41
2022-08-18T07:27:49.273Z,100070.50
2022-08-18T07:30:19.463Z,100070.50
2022-08-18T07:33:19.264Z,100085.34
2022-08-18T07:36:10.055Z,100081.94
2022-08-18T07:39:12.010Z,100084.81
2022-08-18T07:41:48.632Z,100074.06
2022-08-18T07:44:22.276Z,100083.09
2022-08-18T07:46:58.830Z,100074.53
2022-08-18T07:49:35.320Z,100077.16
2022-08-18T07:52:36.438Z,100084.34
2022-08-18T07:55:33.352Z,100084.03
2022-08-18T07:58:23.107Z,100083.50
2022-08-18T08:01:33.932Z,100069.13
2022-08-18T08:04:38.027Z,100080.00
2022-08-18T08:07:25.319Z,100072.41
2022-08-18T08:10:15.192Z,100065.84
2022-08-18T08:13:09.618Z,100063.56
2022-08-18T08:16:42.066Z,100054.84
2022-08-18T08:20:02.754Z,100077.00
2022-08-18T08:22:39.822Z,100075.97
2022-08-18T08:25:45.054Z,100078.56
2022-08-18T08:28:35.484Z,100094.88
2022-08-18T08:31:38.189Z,100095.91
2022-08-18T08:34:25.798Z,100096.94
2022-08-18T08:37:05.721Z,100091.66
2022-08-18T08:40:08.327Z,100108.53
2022-08-18T08:42:54.825Z,100112.56
2022-08-18T08:45:33.108Z,100116.69
2022-08-18T08:48:09.369Z,100107.13
2022-08-18T08:50:55.262Z,100100.50
2022-08-18T08:53:43.951Z,100087.78
2022-08-18T08:56:16.301Z,100087.50
2022-08-18T08:58:52.810Z,100098.38
2022-08-18T09:01:45.022Z,100095.38
2022-08-18T09:04:39.560Z,100106.25
2022-08-18T09:07:39.012Z,100116.13
2022-08-18T09:10:54.316Z,100117.69
2022-08-18T09:13:39.075Z,100127.25
2022-08-18T09:16:34.848Z,100122.22
2022-08-18T09:19:21.370Z,100114.06
2022-08-18T09:22:03.540Z,100102.31
2022-08-18T09:25:02.131Z,100083.28
2022-08-18T09:28:09.485Z,100079.50
2022-08-18T09:31:08.663Z,100073.94
2022-08-18T09:33:45.874Z,100062.72
2022-08-18T09:37:00.461Z,100042.28
2022-08-18T09:40:12.544Z,100059.09
2022-08-18T09:42:56.003Z,100068.19
2022-08-18T09:45:40.780Z,100070.69
2022-08-18T09:48:32.314Z,100065.31
2022-08-18T09:51:17.547Z,100073.44
2022-08-18T09:53:54.371Z,100077.78
2022-08-18T09:56:54.338Z,100079.06
2022-08-18T09:59:47.701Z,100084.75
2022-08-18T10:02:29.745Z,100080.34
2022-08-18T10:05:19.309Z,100075.28
2022-08-18T10:08:21.344Z,100077.22
2022-08-18T10:11:40.056Z,100082.31
2022-08-18T10:15:08.824Z,100093.78
2022-08-18T10:18:17.777Z,100092.31
2022-08-18T10:21:09.422Z,100093.53
2022-08-18T10:26:54.633Z,100085.03
2022-08-18T10:29:29.167Z,100071.59
2022-08-18T10:31:57.591Z,100070.94
2022-08-18T10:34:51.880Z,100062.84
2022-08-18T10:37:38.597Z,100050.56
2022-08-18T10:40:10.064Z,100048.03
2022-08-18T10:46:25.018Z,100026.94
2022-08-18T10:49:22.853Z,100027.63
2022-08-18T10:52:10.939Z,100025.38
2022-08-18T10:54:56.462Z,100018.19
2022-08-18T10:58:08.560Z,100008.94
2022-08-18T11:01:11.876Z,100022.31
2022-08-18T11:03:51.697Z,100029.09
2022-08-18T11:06:27.382Z,100015.41
2022-08-18T11:09:01.445Z,99997.06
2022-08-18T11:11:52.896Z,99989.34
2022-08-18T11:15:22.149Z,99991.91
2022-08-18T11:18:42.671Z,99990.72
2022-08-18T11:21:41.860Z,100008.16
2022-08-18T11:24:32.013Z,100015.13
2022-08-18T11:27:17.475Z,100011.56
2022-08-18T11:29:47.203Z,100018.72
2022-08-18T11:32:34.931Z,100002.94
2022-08-18T11:35:22.234Z,99996.31
2022-08-18T11:38:03.886Z,100009.66
2022-08-18T11:41:48.301Z,100010.31
2022-08-18T11:44:25.210Z,100006.56
2022-08-18T11:47:07.571Z,99993.91
2022-08-18T11:49:37.716Z,99997.13
2022-08-18T11:55:28.767Z,99979.13
2022-08-18T11:58:00.356Z,99970.56
2022-08-18T12:00:48.168Z,99977.38
2022-08-18T12:03:37.658Z,99977.91
2022-08-18T12:06:33.724Z,99974.31
2022-08-18T12:10:07.794Z,99976.41
2022-08-18T12:12:30.988Z,99960.66
2022-08-18T12:15:24.247Z,99967.66
2022-08-18T12:17:54.189Z,99950.25
2022-08-18T12:20:27.108Z,99946.31
2022-08-18T12:22:59.050Z,99947.34
2022-08-18T12:25:26.957Z,99934.88
2022-08-18T12:27:55.944Z,99939.28
2022-08-18T12:30:24.799Z,99930.25
2022-08-18T12:32:56.206Z,99931.09
2022-08-18T12:35:34.726Z,99925.50
2022-08-18T12:38:13.166Z,99933.19
2022-08-18T12:40:43.438Z,99908.31
2022-08-18T12:43:12.439Z,99925.38
2022-08-18T12:45:44.289Z,99929.28
2022-08-18T12:48:13.301Z,99916.28
2022-08-18T12:50:54.028Z,99920.69
2022-08-18T12:53:30.507Z,99926.31
2022-08-18T12:56:30.593Z,99913.78
2022-08-18T12:59:06.776Z,99907.47
2022-08-18T13:01:37.208Z,99904.88
2022-08-18T13:07:01.957Z,99896.66
2022-08-18T13:09:53.079Z,99893.03
2022-08-18T13:12:23.904Z,99897.16
2022-08-18T13:14:55.122Z,99891.34
2022-08-18T13:17:32.421Z,99904.28
2022-08-18T13:20:15.113Z,99891.25
2022-08-18T13:22:44.221Z,99888.50
2022-08-18T13:25:28.814Z,99888.66
2022-08-18T13:28:01.815Z,99884.38
2022-08-18T13:30:32.752Z,99865.13
2022-08-18T13:33:05.218Z,99870.88
2022-08-18T13:35:44.318Z,99866.38
2022-08-18T13:38:21.754Z,99862.72
2022-08-18T13:40:55.485Z,99855.31
2022-08-18T13:43:35.617Z,99861.09
2022-08-18T13:46:09.243Z,99845.88
2022-08-18T13:48:39.203Z,99850.97
2022-08-18T13:51:16.857Z,99842.13
2022-08-18T13:53:52.202Z,99846.16
2022-08-18T13:56:31.316Z,99838.97
2022-08-18T13:59:00.447Z,99847.50
2022-08-18T14:01:51.912Z,99830.56
2022-08-18T14:04:22.349Z,99829.72
2022-08-18T14:06:57.023Z,99840.03
2022-08-18T14:09:36.689Z,99832.66
2022-08-18T14:12:23.008Z,99841.94
2022-08-18T14:14:55.065Z,99844.88
2022-08-18T14:17:26.728Z,99839.09
2022-08-18T14:20:15.132Z,99836.47
2022-08-18T14:23:22.041Z,99839.28
2022-08-18T14:26:12.005Z,99842.88
2022-08-18T14:28:41.316Z,99845.63
2022-08-18T14:31:11.896Z,99835.13
2022-08-18T14:33:50.576Z,99840.06
2022-08-18T14:36:28.928Z,99842.59
2022-08-18T14:39:01.636Z,99842.53
2022-08-18T14:41:31.781Z,99836.84
2022-08-18T14:44:13.287Z,99837.91
2022-08-18T14:46:54.238Z,99833.00
2022-08-18T14:49:28.423Z,99831.50
2022-08-18T14:52:02.228Z,99843.75
2022-08-18T14:54:32.162Z,99845.00
2022-08-18T14:57:03.049Z,99830.31
2022-08-18T14:59:34.637Z,99849.31
2022-08-18T15:02:11.236Z,99851.78
2022-08-18T15:04:55.876Z,99852.34
2022-08-18T15:07:26.980Z,99851.22
2022-08-18T15:10:15.646Z,99853.56
2022-08-18T15:12:44.774Z,99852.91
2022-08-18T15:15:18.022Z,99845.25
2022-08-18T15:17:50.251Z,99850.72
2022-08-18T15:20:29.436Z,99855.53
2022-08-18T15:23:28.070Z,99865.47
2022-08-18T15:25:58.882Z,99851.84
2022-08-18T15:28:28.237Z,99851.19
2022-08-18T15:33:50.210Z,99860.16
2022-08-18T15:36:24.107Z,99863.19
2022-08-18T15:39:01.673Z,99867.44
2022-08-18T15:41:44.200Z,99867.38
2022-08-18T15:44:19.903Z,99870.75
2022-08-18T15:46:53.400Z,99862.63
2022-08-18T15:49:24.254Z,99875.38
2022-08-18T15:51:52.550Z,99874.06
2022-08-18T15:54:21.099Z,99875.47
2022-08-18T15:56:58.077Z,99867.09
2022-08-18T15:59:34.219Z,99873.41
2022-08-18T16:02:11.797Z,99871.22
2022-08-18T16:04:43.082Z,99868.00
2022-08-18T16:07:17.904Z,99864.34
2022-08-18T16:09:53.105Z,99869.13
2022-08-18T16:12:21.682Z,99867.50
2022-08-18T16:14:53.238Z,99866.47
2022-08-18T16:17:29.823Z,99864.66
2022-08-18T16:20:02.410Z,99866.28
2022-08-18T16:22:31.842Z,99854.56
2022-08-18T16:25:02.746Z,99867.72
2022-08-18T16:27:33.549Z,99864.66
2022-08-18T16:30:04.771Z,99871.75
2022-08-18T16:32:32.752Z,99863.03
2022-08-18T16:35:01.616Z,99864.06
2022-08-18T16:37:30.860Z,99860.00
2022-08-18T16:39:59.811Z,99852.53
2022-08-18T16:42:33.438Z,99865.66
2022-08-18T16:45:04.141Z,99859.03
2022-08-18T16:47:39.972Z,99859.41
2022-08-18T16:50:17.816Z,99845.31
2022-08-18T16:52:47.372Z,99854.56
2022-08-18T16:55:15.763Z,99840.72
2022-08-18T16:58:03.542Z,99848.06
2022-08-18T17:00:55.298Z,99854.06
2022-08-18T17:03:43.114Z,99852.28
2022-08-18T17:06:15.263Z,99837.59
2022-08-18T17:08:45.770Z,99847.34
2022-08-18T17:11:27.730Z,99840.19
2022-08-18T17:13:58.507Z,99836.97
2022-08-18T17:16:29.280Z,99835.50
2022-08-18T17:18:59.046Z,99834.47
2022-08-18T17:24:05.495Z,99842.06
2022-08-18T17:26:46.569Z,99845.16
2022-08-18T17:29:43.860Z,99831.69
2022-08-18T17:32:27.829Z,99826.78
2022-08-18T17:35:08.075Z,99841.59
2022-08-18T17:37:37.570Z,99840.13
2022-08-18T17:40:28.625Z,99837.72
2022-08-18T17:42:59.864Z,99844.03
2022-08-18T17:45:35.069Z,99842.34
2022-08-18T17:48:18.180Z,99841.50
2022-08-18T17:51:09.642Z,99840.84
2022-08-18T17:53:37.820Z,99846.84
2022-08-18T17:56:37.856Z,99847.53
2022-08-18T17:59:45.838Z,99857.75
2022-08-18T18:02:29.988Z,99845.16
2022-08-18T18:05:03.635Z,99849.94
2022-08-18T18:07:58.502Z,99851.84
2022-08-18T18:11:05.484Z,99853.16
2022-08-18T18:13:34.064Z,99854.72
2022-08-18T18:16:35.082Z,99854.72
2022-08-18T18:19:07.561Z,99862.72
2022-08-18T18:21:55.315Z,99857.31
2022-08-18T18:24:33.009Z,99858.50
2022-08-18T18:27:03.325Z,99865.16
2022-08-18T18:29:37.785Z,99863.13
2022-08-18T18:32:24.673Z,99859.38
2022-08-18T18:35:34.048Z,99872.50
2022-08-18T18:38:23.145Z,99862.44
2022-08-18T18:41:14.829Z,99870.63
2022-08-18T18:43:47.112Z,99859.84
2022-08-18T18:47:01.704Z,99875.56
2022-08-18T18:49:50.653Z,99868.56
2022-08-18T18:52:37.456Z,99870.22
2022-08-18T18:55:24.384Z,99882.88
2022-08-18T18:58:21.537Z,99885.41
2022-08-18T19:00:59.611Z,99882.31
2022-08-18T19:03:39.605Z,99875.50
2022-08-18T19:06:45.256Z,99884.03
2022-08-18T19:09:18.493Z,99887.25
2022-08-18T19:12:05.419Z,99881.78
2022-08-18T19:14:59.838Z,99888.78
2022-08-18T19:17:31.167Z,99893.03
2022-08-18T19:20:21.671Z,99898.50
2022-08-18T19:23:00.585Z,99897.44
2022-08-18T19:25:42.606Z,99903.22
2022-08-18T19:29:13.784Z,99902.69
2022-08-18T19:31:46.217Z,99895.13
2022-08-18T19:34:37.816Z,99889.47
2022-08-18T19:37:31.292Z,99901.22
2022-08-18T19:40:35.080Z,99900.03
2022-08-18T19:43:12.606Z,99898.63
2022-08-18T19:46:03.071Z,99907.66
2022-08-18T19:49:04.394Z,99911.03
2022-08-18T19:51:40.377Z,99910.50
2022-08-18T19:54:17.526Z,99909.47
2022-08-18T19:57:10.007Z,99905.06
2022-08-18T20:00:15.887Z,99908.09
2022-08-18T20:02:46.484Z,99902.28
2022-08-18T20:06:33.676Z,99901.78
2022-08-18T20:09:10.023Z,99903.84
2022-08-18T20:12:09.250Z,99908.94
2022-08-18T20:14:42.446Z,99904.88
2022-08-18T20:17:13.218Z,99916.59
2022-08-18T20:20:04.510Z,99912.69
2022-08-18T20:22:42.781Z,99913.16
2022-08-18T20:25:20.454Z,99915.59
2022-08-18T20:27:53.166Z,99923.75
2022-08-18T20:30:29.031Z,99934.97
2022-08-18T20:33:18.054Z,99924.06
2022-08-18T20:36:29.429Z,99932.03
2022-08-18T20:39:00.497Z,99948.38
2022-08-18T20:41:43.893Z,99932.34
2022-08-18T20:44:29.455Z,99946.50
2022-08-18T20:47:32.542Z,99947.66
2022-08-18T20:50:22.133Z,99947.66
2022-08-18T20:53:16.552Z,99952.13
2022-08-18T20:56:43.224Z,99944.03
2022-08-18T20:59:20.061Z,99929.56
2022-08-18T21:02:07.679Z,99927.56
2022-08-18T21:04:47.856Z,99930.41
2022-08-18T21:07:36.266Z,99929.69
2022-08-18T21:10:28.456Z,99916.91
2022-08-18T21:13:03.528Z,99919.94
2022-08-18T21:15:39.629Z,99911.41
2022-08-18T21:18:24.654Z,99925.56
2022-08-18T21:20:58.556Z,99920.41
2022-08-18T21:23:34.884Z,99927.72
2022-08-18T21:26:14.657Z,99931.31
2022-08-18T21:28:46.817Z,99938.06
2022-08-18T21:31:44.394Z,99934.38
2022-08-18T21:34:44.877Z,99933.56
2022-08-18T21:37:18.250Z,99941.44
2022-08-18T21:39:59.736Z,99946.41
2022-08-18T21:42:41.974Z,99954.75
2022-08-18T21:45:22.538Z,99962.56
2022-08-18T21:47:56.568Z,99962.72
2022-08-18T21:50:29.409Z,99958.16
2022-08-18T21:53:05.539Z,99974.84
2022-08-18T21:55:41.926Z,99968.56
2022-08-18T21:58:16.792Z,99981.88
2022-08-18T22:01:11.013Z,99976.41
2022-08-18T22:04:32.069Z,99970.25
2022-08-18T22:07:34.546Z,99972.84
2022-08-18T22:10:44.861Z,99966.22
2022-08-18T22:13:46.838Z,99962.81
2022-08-18T22:16:38.053Z,99961.06
2022-08-18T22:19:20.689Z,99966.69
2022-08-18T22:22:31.521Z,99962.44
2022-08-18T22:25:00.370Z,99971.53
2022-08-18T22:27:29.813Z,99973.06
2022-08-18T22:30:04.694Z,99978.91
2022-08-18T22:32:39.856Z,99984.50
2022-08-18T22:35:10.218Z,99971.06
2022-08-18T22:37:50.167Z,99968.19
2022-08-18T22:40:21.492Z,99970.34
2022-08-18T22:42:50.226Z,99974.81
2022-08-18T22:45:20.464Z,99983.81
2022-08-18T22:47:48.815Z,99980.38
2022-08-18T22:50:16.950Z,99989.78
2022-08-18T22:52:49.532Z,99977.19
2022-08-18T22:55:22.070Z,99985.91
2022-08-18T22:57:55.888Z,99996.78
2022-08-18T23:00:27.511Z,99995.78
2022-08-18T23:02:56.003Z,99975.78
2022-08-18T23:05:25.623Z,99979.38
2022-08-18T23:07:55.961Z,99987.22
2022-08-18T23:10:24.658Z,99994.72
2022-08-18T23:12:54.107Z,99995.41
2022-08-18T23:15:39.256Z,99998.28
2022-08-18T23:18:07.797Z,100006.59
2022-08-18T23:20:37.425Z,99997.09
2022-08-18T23:23:09.193Z,99996.41
2022-08-18T23:25:37.338Z,99992.84
2022-08-18T23:28:10.730Z,99989.03
2022-08-18T23:30:40.742Z,99994.53
2022-08-18T23:33:10.431Z,100002.16
2022-08-18T23:35:39.883Z,99993.31
2022-08-18T23:38:08.986Z,99994.00
2022-08-18T23:40:42.323Z,99996.72
2022-08-18T23:43:10.390Z,99990.59
2022-08-18T23:45:50.002Z,99989.03
2022-08-18T23:48:23.988Z,99989.19
2022-08-18T23:50:53.332Z,99984.22
2022-08-18T23:53:22.295Z,99971.94
2022-08-18T23:55:50.334Z,99980.94
2022-08-18T23:58:19.166Z,99970.69
